sensor_id;sensor_type;location;lat;lon;timestamp;P1;durP1;ratioP1;P2;durP2;ratioP2
23800;SDS011;12081;48.614;10.226;2023-07-24T04:03:24;10.40;;;6.43;;
23800;SDS011;12081;48.614;10.226;2023-07-24T04:29:59;14.03;;;7.07;;
23800;SDS011;12081;48.614;10.226;2023-07-24T05:40:26;15.17;;;9.03;;
23800;SDS011;12081;48.614;10.226;2023-07-24T05:43:11;15.37;;;9.23;;
23800;SDS011;12081;48.614;10.226;2023-07-24T05:45:56;12.03;;;7.70;;
23800;SDS011;12081;48.614;10.226;2023-07-24T05:48:40;13.10;;;7.93;;
23800;SDS011;12081;48.614;10.226;2023-07-24T05:51:24;12.63;;;8.03;;
23800;SDS011;12081;48.614;10.226;2023-07-24T05:54:09;13.40;;;8.30;;
23800;SDS011;12081;48.614;10.226;2023-07-24T05:56:52;11.00;;;8.53;;
23800;SDS011;12081;48.614;10.226;2023-07-24T05:59:37;13.10;;;8.80;;
23800;SDS011;12081;48.614;10.226;2023-07-24T06:02:21;10.37;;;7.30;;
23800;SDS011;12081;48.614;10.226;2023-07-24T06:05:05;14.43;;;8.30;;
23800;SDS011;12081;48.614;10.226;2023-07-24T06:07:49;13.37;;;8.67;;
23800;SDS011;12081;48.614;10.226;2023-07-24T06:10:33;11.13;;;8.37;;
23800;SDS011;12081;48.614;10.226;2023-07-24T06:13:18;15.33;;;9.13;;
23800;SDS011;12081;48.614;10.226;2023-07-24T06:16:02;11.93;;;8.30;;
23800;SDS011;12081;48.614;10.226;2023-07-24T06:18:46;13.77;;;8.73;;
23800;SDS011;12081;48.614;10.226;2023-07-24T06:21:30;14.07;;;9.60;;
23800;SDS011;12081;48.614;10.226;2023-07-24T06:24:14;14.50;;;8.97;;
23800;SDS011;12081;48.614;10.226;2023-07-24T06:26:58;13.57;;;9.03;;
23800;SDS011;12081;48.614;10.226;2023-07-24T06:29:42;12.07;;;8.23;;
23800;SDS011;12081;48.614;10.226;2023-07-24T06:32:27;11.33;;;8.20;;
23800;SDS011;12081;48.614;10.226;2023-07-24T06:35:11;12.63;;;9.23;;
23800;SDS011;12081;48.614;10.226;2023-07-24T06:37:55;15.73;;;9.33;;
23800;SDS011;12081;48.614;10.226;2023-07-24T06:40:40;15.97;;;10.63;;
23800;SDS011;12081;48.614;10.226;2023-07-24T06:43:24;13.07;;;9.73;;
23800;SDS011;12081;48.614;10.226;2023-07-24T06:46:08;15.67;;;9.83;;
23800;SDS011;12081;48.614;10.226;2023-07-24T06:48:52;17.67;;;12.47;;
23800;SDS011;12081;48.614;10.226;2023-07-24T06:51:36;20.47;;;12.87;;
23800;SDS011;12081;48.614;10.226;2023-07-24T06:54:22;15.00;;;10.43;;
23800;SDS011;12081;48.614;10.226;2023-07-24T06:57:06;16.03;;;11.30;;
23800;SDS011;12081;48.614;10.226;2023-07-24T06:59:50;15.83;;;10.03;;
23800;SDS011;12081;48.614;10.226;2023-07-24T07:02:35;14.17;;;10.20;;
23800;SDS011;12081;48.614;10.226;2023-07-24T07:05:19;15.07;;;10.67;;
23800;SDS011;12081;48.614;10.226;2023-07-24T07:08:03;14.40;;;10.53;;
23800;SDS011;12081;48.614;10.226;2023-07-24T07:10:47;13.80;;;10.03;;
23800;SDS011;12081;48.614;10.226;2023-07-24T07:13:40;15.20;;;9.43;;
23800;SDS011;12081;48.614;10.226;2023-07-24T07:16:24;13.63;;;9.27;;
23800;SDS011;12081;48.614;10.226;2023-07-24T07:19:11;15.10;;;10.00;;
23800;SDS011;12081;48.614;10.226;2023-07-24T07:21:55;16.20;;;10.80;;
23800;SDS011;12081;48.614;10.226;2023-07-24T07:24:39;14.13;;;10.07;;
23800;SDS011;12081;48.614;10.226;2023-07-24T07:27:23;17.93;;;10.17;;
23800;SDS011;12081;48.614;10.226;2023-07-24T07:30:07;14.73;;;8.53;;
23800;SDS011;12081;48.614;10.226;2023-07-24T07:32:52;12.67;;;9.67;;
23800;SDS011;12081;48.614;10.226;2023-07-24T07:35:36;13.63;;;8.87;;
23800;SDS011;12081;48.614;10.226;2023-07-24T07:38:20;12.93;;;8.97;;
23800;SDS011;12081;48.614;10.226;2023-07-24T07:41:06;13.53;;;8.90;;
23800;SDS011;12081;48.614;10.226;2023-07-24T07:43:50;14.67;;;8.57;;
23800;SDS011;12081;48.614;10.226;2023-07-24T07:46:34;13.40;;;8.60;;
23800;SDS011;12081;48.614;10.226;2023-07-24T07:49:18;13.40;;;9.30;;
23800;SDS011;12081;48.614;10.226;2023-07-24T07:52:02;12.10;;;8.40;;
23800;SDS011;12081;48.614;10.226;2023-07-24T07:54:47;12.90;;;8.47;;
23800;SDS011;12081;48.614;10.226;2023-07-24T07:57:35;11.77;;;8.17;;
23800;SDS011;12081;48.614;10.226;2023-07-24T08:00:20;14.80;;;8.43;;
23800;SDS011;12081;48.614;10.226;2023-07-24T08:03:05;11.47;;;7.63;;
23800;SDS011;12081;48.614;10.226;2023-07-24T08:05:49;11.73;;;7.43;;
23800;SDS011;12081;48.614;10.226;2023-07-24T08:08:33;9.80;;;7.37;;
23800;SDS011;12081;48.614;10.226;2023-07-24T08:11:17;12.57;;;7.47;;
23800;SDS011;12081;48.614;10.226;2023-07-24T08:14:01;11.73;;;7.40;;
23800;SDS011;12081;48.614;10.226;2023-07-24T08:16:53;10.40;;;7.25;;
23800;SDS011;12081;48.614;10.226;2023-07-24T08:19:36;12.60;;;7.45;;
23800;SDS011;12081;48.614;10.226;2023-07-24T08:22:20;8.50;;;6.40;;
23800;SDS011;12081;48.614;10.226;2023-07-24T08:25:06;8.77;;;6.65;;
23800;SDS011;12081;48.614;10.226;2023-07-24T08:27:50;9.55;;;6.95;;
23800;SDS011;12081;48.614;10.226;2023-07-24T08:30:35;11.05;;;7.28;;
23800;SDS011;12081;48.614;10.226;2023-07-24T08:33:19;9.90;;;6.68;;
23800;SDS011;12081;48.614;10.226;2023-07-24T08:36:07;12.45;;;6.95;;
23800;SDS011;12081;48.614;10.226;2023-07-24T08:38:51;10.90;;;6.75;;
23800;SDS011;12081;48.614;10.226;2023-07-24T08:41:39;8.88;;;6.47;;
23800;SDS011;12081;48.614;10.226;2023-07-24T08:44:23;10.30;;;7.28;;
23800;SDS011;12081;48.614;10.226;2023-07-24T08:47:12;8.68;;;6.47;;
23800;SDS011;12081;48.614;10.226;2023-07-24T08:49:58;9.85;;;6.68;;
23800;SDS011;12081;48.614;10.226;2023-07-24T08:52:42;8.77;;;6.35;;
23800;SDS011;12081;48.614;10.226;2023-07-24T08:55:28;8.88;;;6.95;;
23800;SDS011;12081;48.614;10.226;2023-07-24T08:58:13;9.90;;;6.55;;
23800;SDS011;12081;48.614;10.226;2023-07-24T09:00:57;7.32;;;6.50;;
23800;SDS011;12081;48.614;10.226;2023-07-24T09:03:42;9.77;;;5.88;;
23800;SDS011;12081;48.614;10.226;2023-07-24T09:06:26;8.43;;;5.95;;
23800;SDS011;12081;48.614;10.226;2023-07-24T09:09:14;9.80;;;6.25;;
23800;SDS011;12081;48.614;10.226;2023-07-24T09:11:59;8.40;;;5.85;;
23800;SDS011;12081;48.614;10.226;2023-07-24T09:14:44;10.13;;;5.50;;
23800;SDS011;12081;48.614;10.226;2023-07-24T09:17:29;8.45;;;6.22;;
23800;SDS011;12081;48.614;10.226;2023-07-24T09:20:13;7.20;;;5.43;;
23800;SDS011;12081;48.614;10.226;2023-07-24T09:22:57;9.23;;;6.13;;
23800;SDS011;12081;48.614;10.226;2023-07-24T09:25:41;6.32;;;5.45;;
23800;SDS011;12081;48.614;10.226;2023-07-24T09:28:26;7.85;;;5.47;;
23800;SDS011;12081;48.614;10.226;2023-07-24T09:31:10;8.32;;;5.50;;
23800;SDS011;12081;48.614;10.226;2023-07-24T09:33:55;8.52;;;5.47;;
23800;SDS011;12081;48.614;10.226;2023-07-24T09:36:39;7.05;;;5.05;;
23800;SDS011;12081;48.614;10.226;2023-07-24T09:39:26;6.60;;;5.15;;
23800;SDS011;12081;48.614;10.226;2023-07-24T09:42:10;6.80;;;5.18;;
23800;SDS011;12081;48.614;10.226;2023-07-24T09:44:54;7.53;;;5.40;;
23800;SDS011;12081;48.614;10.226;2023-07-24T09:47:39;6.18;;;4.70;;
23800;SDS011;12081;48.614;10.226;2023-07-24T09:50:24;8.13;;;5.22;;
23800;SDS011;12081;48.614;10.226;2023-07-24T09:53:12;6.10;;;4.65;;
23800;SDS011;12081;48.614;10.226;2023-07-24T09:56:04;6.50;;;5.18;;
23800;SDS011;12081;48.614;10.226;2023-07-24T09:58:50;6.43;;;5.20;;
23800;SDS011;12081;48.614;10.226;2023-07-24T10:01:38;6.85;;;5.57;;
23800;SDS011;12081;48.614;10.226;2023-07-24T10:04:23;10.05;;;5.85;;
23800;SDS011;12081;48.614;10.226;2023-07-24T10:07:07;6.65;;;5.53;;
23800;SDS011;12081;48.614;10.226;2023-07-24T10:09:52;6.75;;;5.15;;
23800;SDS011;12081;48.614;10.226;2023-07-24T10:12:38;8.63;;;5.82;;
23800;SDS011;12081;48.614;10.226;2023-07-24T10:15:23;7.45;;;5.35;;
23800;SDS011;12081;48.614;10.226;2023-07-24T10:18:08;10.43;;;5.53;;
23800;SDS011;12081;48.614;10.226;2023-07-24T10:21:03;6.35;;;5.13;;
23800;SDS011;12081;48.614;10.226;2023-07-24T10:23:49;8.57;;;5.80;;
23800;SDS011;12081;48.614;10.226;2023-07-24T10:26:33;10.85;;;5.65;;
23800;SDS011;12081;48.614;10.226;2023-07-24T10:29:19;9.93;;;5.78;;
23800;SDS011;12081;48.614;10.226;2023-07-24T10:32:03;8.10;;;5.90;;
23800;SDS011;12081;48.614;10.226;2023-07-24T10:34:58;8.82;;;5.90;;
23800;SDS011;12081;48.614;10.226;2023-07-24T10:37:58;9.33;;;5.73;;
23800;SDS011;12081;48.614;10.226;2023-07-24T10:40:45;9.73;;;5.88;;
23800;SDS011;12081;48.614;10.226;2023-07-24T10:43:41;8.15;;;5.47;;
23800;SDS011;12081;48.614;10.226;2023-07-24T10:46:36;7.53;;;4.70;;
23800;SDS011;12081;48.614;10.226;2023-07-24T10:49:22;6.50;;;4.97;;
23800;SDS011;12081;48.614;10.226;2023-07-24T10:52:06;7.22;;;4.90;;
23800;SDS011;12081;48.614;10.226;2023-07-24T10:54:52;7.57;;;5.10;;
23800;SDS011;12081;48.614;10.226;2023-07-24T10:57:36;9.38;;;5.30;;
23800;SDS011;12081;48.614;10.226;2023-07-24T11:00:20;8.13;;;4.50;;
23800;SDS011;12081;48.614;10.226;2023-07-24T11:03:04;6.73;;;4.80;;
23800;SDS011;12081;48.614;10.226;2023-07-24T11:05:48;19.05;;;5.47;;
23800;SDS011;12081;48.614;10.226;2023-07-24T11:08:33;10.60;;;5.23;;
23800;SDS011;12081;48.614;10.226;2023-07-24T11:11:19;7.10;;;5.00;;
23800;SDS011;12081;48.614;10.226;2023-07-24T11:14:03;7.33;;;4.67;;
23800;SDS011;12081;48.614;10.226;2023-07-24T11:16:49;7.07;;;4.50;;
23800;SDS011;12081;48.614;10.226;2023-07-24T11:19:33;6.70;;;5.00;;
23800;SDS011;12081;48.614;10.226;2023-07-24T11:22:21;8.67;;;5.00;;
23800;SDS011;12081;48.614;10.226;2023-07-24T11:25:06;4.90;;;4.00;;
23800;SDS011;12081;48.614;10.226;2023-07-24T11:27:50;10.90;;;4.70;;
23800;SDS011;12081;48.614;10.226;2023-07-24T11:30:35;7.27;;;4.37;;
23800;SDS011;12081;48.614;10.226;2023-07-24T11:33:19;10.07;;;4.70;;
23800;SDS011;12081;48.614;10.226;2023-07-24T11:36:04;8.47;;;4.20;;
23800;SDS011;12081;48.614;10.226;2023-07-24T11:38:49;8.80;;;4.83;;
23800;SDS011;12081;48.614;10.226;2023-07-24T11:41:33;8.87;;;4.77;;
23800;SDS011;12081;48.614;10.226;2023-07-24T11:44:24;9.13;;;4.93;;
23800;SDS011;12081;48.614;10.226;2023-07-24T11:47:10;9.97;;;5.50;;
23800;SDS011;12081;48.614;10.226;2023-07-24T11:55:01;6.47;;;4.57;;
23800;SDS011;12081;48.614;10.226;2023-07-24T11:57:57;7.60;;;5.53;;
23800;SDS011;12081;48.614;10.226;2023-07-24T12:00:47;8.53;;;4.97;;
23800;SDS011;12081;48.614;10.226;2023-07-24T12:03:32;9.40;;;5.73;;
23800;SDS011;12081;48.614;10.226;2023-07-24T12:06:16;11.97;;;6.27;;
23800;SDS011;12081;48.614;10.226;2023-07-24T12:09:04;8.33;;;5.43;;
23800;SDS011;12081;48.614;10.226;2023-07-24T12:11:49;10.93;;;5.40;;
23800;SDS011;12081;48.614;10.226;2023-07-24T12:14:33;8.70;;;5.90;;
23800;SDS011;12081;48.614;10.226;2023-07-24T12:17:17;8.17;;;5.70;;
23800;SDS011;12081;48.614;10.226;2023-07-24T12:20:02;6.40;;;4.87;;
23800;SDS011;12081;48.614;10.226;2023-07-24T12:22:49;7.77;;;4.87;;
23800;SDS011;12081;48.614;10.226;2023-07-24T12:25:33;7.97;;;5.33;;
23800;SDS011;12081;48.614;10.226;2023-07-24T12:28:18;6.43;;;5.30;;
23800;SDS011;12081;48.614;10.226;2023-07-24T12:31:02;9.47;;;5.00;;
23800;SDS011;12081;48.614;10.226;2023-07-24T12:33:47;7.47;;;4.90;;
23800;SDS011;12081;48.614;10.226;2023-07-24T12:36:32;7.90;;;4.93;;
23800;SDS011;12081;48.614;10.226;2023-07-24T12:39:18;7.50;;;4.60;;
23800;SDS011;12081;48.614;10.226;2023-07-24T12:42:02;7.90;;;5.37;;
23800;SDS011;12081;48.614;10.226;2023-07-24T12:44:46;6.18;;;5.03;;
23800;SDS011;12081;48.614;10.226;2023-07-24T12:47:31;6.10;;;5.03;;
23800;SDS011;12081;48.614;10.226;2023-07-24T12:50:16;6.40;;;5.05;;
23800;SDS011;12081;48.614;10.226;2023-07-24T12:53:00;6.32;;;4.93;;
23800;SDS011;12081;48.614;10.226;2023-07-24T12:55:45;7.05;;;4.90;;
23800;SDS011;12081;48.614;10.226;2023-07-24T12:58:29;6.75;;;4.70;;
23800;SDS011;12081;48.614;10.226;2023-07-24T13:01:13;7.23;;;4.97;;
23800;SDS011;12081;48.614;10.226;2023-07-24T13:03:57;6.13;;;4.67;;
23800;SDS011;12081;48.614;10.226;2023-07-24T13:06:41;7.10;;;5.18;;
23800;SDS011;12081;48.614;10.226;2023-07-24T13:09:25;6.05;;;4.93;;
23800;SDS011;12081;48.614;10.226;2023-07-24T13:12:10;7.13;;;5.25;;
23800;SDS011;12081;48.614;10.226;2023-07-24T13:14:54;6.97;;;5.20;;
23800;SDS011;12081;48.614;10.226;2023-07-24T13:17:38;5.13;;;4.63;;
23800;SDS011;12081;48.614;10.226;2023-07-24T13:20:24;8.37;;;5.07;;
23800;SDS011;12081;48.614;10.226;2023-07-24T13:23:08;7.03;;;4.67;;
23800;SDS011;12081;48.614;10.226;2023-07-24T13:25:52;6.50;;;5.22;;
23800;SDS011;12081;48.614;10.226;2023-07-24T13:28:36;8.90;;;5.38;;
23800;SDS011;12081;48.614;10.226;2023-07-24T13:31:21;7.40;;;5.13;;
23800;SDS011;12081;48.614;10.226;2023-07-24T13:34:08;7.10;;;5.20;;
23800;SDS011;12081;48.614;10.226;2023-07-24T13:36:52;8.00;;;5.63;;
23800;SDS011;12081;48.614;10.226;2023-07-24T13:39:36;6.18;;;4.93;;
23800;SDS011;12081;48.614;10.226;2023-07-24T13:42:20;6.53;;;5.30;;
23800;SDS011;12081;48.614;10.226;2023-07-24T13:45:05;7.93;;;5.03;;
23800;SDS011;12081;48.614;10.226;2023-07-24T13:47:50;6.17;;;4.73;;
23800;SDS011;12081;48.614;10.226;2023-07-24T13:50:35;6.07;;;4.85;;
23800;SDS011;12081;48.614;10.226;2023-07-24T13:53:19;7.80;;;5.30;;
23800;SDS011;12081;48.614;10.226;2023-07-24T13:56:05;7.88;;;5.18;;
23800;SDS011;12081;48.614;10.226;2023-07-24T13:58:49;7.93;;;5.72;;
23800;SDS011;12081;48.614;10.226;2023-07-24T14:01:33;7.50;;;5.57;;
23800;SDS011;12081;48.614;10.226;2023-07-24T14:04:18;6.97;;;5.40;;
23800;SDS011;12081;48.614;10.226;2023-07-24T14:07:02;7.32;;;4.95;;
23800;SDS011;12081;48.614;10.226;2023-07-24T14:09:46;7.60;;;5.27;;
23800;SDS011;12081;48.614;10.226;2023-07-24T14:12:30;7.72;;;5.82;;
23800;SDS011;12081;48.614;10.226;2023-07-24T14:15:14;7.30;;;5.85;;
23800;SDS011;12081;48.614;10.226;2023-07-24T14:17:58;8.55;;;5.65;;
23800;SDS011;12081;48.614;10.226;2023-07-24T14:20:42;7.17;;;5.03;;
23800;SDS011;12081;48.614;10.226;2023-07-24T14:23:27;6.43;;;5.60;;
23800;SDS011;12081;48.614;10.226;2023-07-24T14:26:11;10.30;;;6.60;;
23800;SDS011;12081;48.614;10.226;2023-07-24T14:28:55;10.17;;;6.80;;
23800;SDS011;12081;48.614;10.226;2023-07-24T14:31:39;7.73;;;5.17;;
23800;SDS011;12081;48.614;10.226;2023-07-24T14:34:23;7.17;;;4.90;;
23800;SDS011;12081;48.614;10.226;2023-07-24T14:37:07;8.13;;;4.70;;
23800;SDS011;12081;48.614;10.226;2023-07-24T14:39:52;9.90;;;4.93;;
23800;SDS011;12081;48.614;10.226;2023-07-24T14:42:36;6.47;;;4.83;;
23800;SDS011;12081;48.614;10.226;2023-07-24T14:45:20;8.87;;;4.70;;
23800;SDS011;12081;48.614;10.226;2023-07-24T14:48:05;5.33;;;4.13;;
23800;SDS011;12081;48.614;10.226;2023-07-24T14:50:54;6.53;;;4.90;;
23800;SDS011;12081;48.614;10.226;2023-07-24T14:53:38;5.67;;;4.70;;
23800;SDS011;12081;48.614;10.226;2023-07-24T14:56:22;8.03;;;5.10;;
23800;SDS011;12081;48.614;10.226;2023-07-24T15:01:54;5.37;;;4.13;;
23800;SDS011;12081;48.614;10.226;2023-07-24T15:04:38;7.07;;;4.57;;
23800;SDS011;12081;48.614;10.226;2023-07-24T15:07:22;5.93;;;4.50;;
23800;SDS011;12081;48.614;10.226;2023-07-24T15:10:06;6.73;;;3.90;;
23800;SDS011;12081;48.614;10.226;2023-07-24T15:12:51;7.97;;;4.13;;
23800;SDS011;12081;48.614;10.226;2023-07-24T15:15:35;5.37;;;4.07;;
23800;SDS011;12081;48.614;10.226;2023-07-24T15:18:19;5.03;;;4.10;;
23800;SDS011;12081;48.614;10.226;2023-07-24T15:21:03;7.20;;;3.90;;
23800;SDS011;12081;48.614;10.226;2023-07-24T15:23:48;7.30;;;4.47;;
23800;SDS011;12081;48.614;10.226;2023-07-24T15:26:41;7.43;;;4.83;;
23800;SDS011;12081;48.614;10.226;2023-07-24T15:29:25;6.57;;;4.47;;
23800;SDS011;12081;48.614;10.226;2023-07-24T15:32:09;7.03;;;4.80;;
23800;SDS011;12081;48.614;10.226;2023-07-24T15:34:55;6.77;;;4.50;;
23800;SDS011;12081;48.614;10.226;2023-07-24T15:37:39;7.57;;;4.27;;
23800;SDS011;12081;48.614;10.226;2023-07-24T15:40:23;5.37;;;4.17;;
23800;SDS011;12081;48.614;10.226;2023-07-24T15:43:08;4.80;;;3.73;;
23800;SDS011;12081;48.614;10.226;2023-07-24T15:45:54;5.70;;;3.83;;
23800;SDS011;12081;48.614;10.226;2023-07-24T15:48:42;5.10;;;3.70;;
23800;SDS011;12081;48.614;10.226;2023-07-24T15:51:26;4.67;;;3.57;;
23800;SDS011;12081;48.614;10.226;2023-07-24T15:54:10;5.07;;;3.97;;
23800;SDS011;12081;48.614;10.226;2023-07-24T15:56:54;5.73;;;3.60;;
23800;SDS011;12081;48.614;10.226;2023-07-24T15:59:38;8.73;;;3.57;;
23800;SDS011;12081;48.614;10.226;2023-07-24T16:02:23;6.53;;;3.53;;
23800;SDS011;12081;48.614;10.226;2023-07-24T16:05:19;5.63;;;3.43;;
23800;SDS011;12081;48.614;10.226;2023-07-24T16:08:04;4.30;;;3.53;;
23800;SDS011;12081;48.614;10.226;2023-07-24T16:10:48;4.57;;;3.20;;
23800;SDS011;12081;48.614;10.226;2023-07-24T16:13:32;5.90;;;3.30;;
23800;SDS011;12081;48.614;10.226;2023-07-24T16:16:18;3.90;;;3.10;;
23800;SDS011;12081;48.614;10.226;2023-07-24T16:19:15;3.57;;;2.87;;
23800;SDS011;12081;48.614;10.226;2023-07-24T16:22:03;5.63;;;3.00;;
23800;SDS011;12081;48.614;10.226;2023-07-24T16:24:48;4.03;;;3.13;;
23800;SDS011;12081;48.614;10.226;2023-07-24T16:27:32;5.10;;;3.13;;
23800;SDS011;12081;48.614;10.226;2023-07-24T16:30:16;5.27;;;3.30;;
23800;SDS011;12081;48.614;10.226;2023-07-24T16:33:00;4.00;;;3.10;;
23800;SDS011;12081;48.614;10.226;2023-07-24T16:35:44;3.77;;;3.17;;
23800;SDS011;12081;48.614;10.226;2023-07-24T16:38:28;5.33;;;3.17;;
23800;SDS011;12081;48.614;10.226;2023-07-24T16:41:13;4.07;;;3.43;;
23800;SDS011;12081;48.614;10.226;2023-07-24T16:43:57;5.17;;;3.33;;
23800;SDS011;12081;48.614;10.226;2023-07-24T16:46:42;4.13;;;3.07;;
23800;SDS011;12081;48.614;10.226;2023-07-24T16:49:26;5.47;;;3.47;;
23800;SDS011;12081;48.614;10.226;2023-07-24T16:52:10;5.97;;;3.40;;
23800;SDS011;12081;48.614;10.226;2023-07-24T16:54:54;6.57;;;3.40;;
23800;SDS011;12081;48.614;10.226;2023-07-24T16:57:38;5.37;;;3.33;;
23800;SDS011;12081;48.614;10.226;2023-07-24T17:00:22;6.80;;;3.73;;
23800;SDS011;12081;48.614;10.226;2023-07-24T17:03:06;7.73;;;3.50;;
23800;SDS011;12081;48.614;10.226;2023-07-24T17:05:50;4.87;;;3.27;;
23800;SDS011;12081;48.614;10.226;2023-07-24T17:08:34;4.40;;;3.23;;
23800;SDS011;12081;48.614;10.226;2023-07-24T17:11:18;4.70;;;3.30;;
23800;SDS011;12081;48.614;10.226;2023-07-24T17:14:02;4.20;;;3.43;;
23800;SDS011;12081;48.614;10.226;2023-07-24T17:16:46;6.90;;;3.37;;
23800;SDS011;12081;48.614;10.226;2023-07-24T17:19:30;5.53;;;3.07;;
23800;SDS011;12081;48.614;10.226;2023-07-24T17:22:20;5.57;;;3.00;;
23800;SDS011;12081;48.614;10.226;2023-07-24T17:25:04;5.80;;;3.43;;
23800;SDS011;12081;48.614;10.226;2023-07-24T17:27:49;4.57;;;3.20;;
23800;SDS011;12081;48.614;10.226;2023-07-24T17:30:33;4.37;;;3.07;;
23800;SDS011;12081;48.614;10.226;2023-07-24T17:33:17;4.00;;;2.80;;
23800;SDS011;12081;48.614;10.226;2023-07-24T17:36:01;7.03;;;3.20;;
23800;SDS011;12081;48.614;10.226;2023-07-24T17:38:45;3.73;;;2.90;;
23800;SDS011;12081;48.614;10.226;2023-07-24T17:41:30;6.43;;;3.30;;
23800;SDS011;12081;48.614;10.226;2023-07-24T17:44:15;5.73;;;3.60;;
23800;SDS011;12081;48.614;10.226;2023-07-24T17:46:54;4.77;;;3.40;;
23800;SDS011;12081;48.614;10.226;2023-07-24T17:49:39;4.67;;;2.97;;
23800;SDS011;12081;48.614;10.226;2023-07-24T17:52:23;5.07;;;3.40;;
23800;SDS011;12081;48.614;10.226;2023-07-24T17:55:07;5.27;;;4.00;;
23800;SDS011;12081;48.614;10.226;2023-07-24T17:57:52;5.40;;;3.50;;
23800;SDS011;12081;48.614;10.226;2023-07-24T18:00:37;4.80;;;3.43;;
23800;SDS011;12081;48.614;10.226;2023-07-24T18:03:24;6.37;;;3.27;;
23800;SDS011;12081;48.614;10.226;2023-07-24T18:06:08;6.47;;;3.00;;
23800;SDS011;12081;48.614;10.226;2023-07-24T18:08:52;7.03;;;3.40;;
23800;SDS011;12081;48.614;10.226;2023-07-24T18:11:36;6.20;;;3.78;;
23800;SDS011;12081;48.614;10.226;2023-07-24T18:14:20;7.23;;;4.13;;
23800;SDS011;12081;48.614;10.226;2023-07-24T18:17:05;9.70;;;3.57;;
23800;SDS011;12081;48.614;10.226;2023-07-24T18:19:49;6.93;;;4.00;;
23800;SDS011;12081;48.614;10.226;2023-07-24T18:22:36;5.30;;;3.63;;
23800;SDS011;12081;48.614;10.226;2023-07-24T18:25:20;7.10;;;4.33;;
23800;SDS011;12081;48.614;10.226;2023-07-24T18:28:04;5.50;;;4.10;;
23800;SDS011;12081;48.614;10.226;2023-07-24T18:30:49;8.50;;;4.30;;
23800;SDS011;12081;48.614;10.226;2023-07-24T18:33:33;6.07;;;4.10;;
23800;SDS011;12081;48.614;10.226;2023-07-24T18:36:17;9.30;;;4.83;;
23800;SDS011;12081;48.614;10.226;2023-07-24T18:39:02;6.90;;;4.37;;
23800;SDS011;12081;48.614;10.226;2023-07-24T18:41:46;8.20;;;4.57;;
23800;SDS011;12081;48.614;10.226;2023-07-24T18:44:30;9.33;;;4.67;;
23800;SDS011;12081;48.614;10.226;2023-07-24T18:47:14;6.93;;;5.17;;
23800;SDS011;12081;48.614;10.226;2023-07-24T18:49:58;7.23;;;4.23;;
23800;SDS011;12081;48.614;10.226;2023-07-24T18:52:43;7.07;;;4.60;;
23800;SDS011;12081;48.614;10.226;2023-07-24T18:55:27;6.83;;;4.43;;
23800;SDS011;12081;48.614;10.226;2023-07-24T18:58:12;6.83;;;4.70;;
23800;SDS011;12081;48.614;10.226;2023-07-24T19:00:56;6.00;;;4.50;;
23800;SDS011;12081;48.614;10.226;2023-07-24T19:03:40;6.30;;;4.53;;
23800;SDS011;12081;48.614;10.226;2023-07-24T19:06:26;10.93;;;4.73;;
23800;SDS011;12081;48.614;10.226;2023-07-24T19:09:10;9.00;;;5.00;;
23800;SDS011;12081;48.614;10.226;2023-07-24T19:11:54;5.37;;;3.07;;
23800;SDS011;12081;48.614;10.226;2023-07-24T19:14:39;6.83;;;3.43;;
23800;SDS011;12081;48.614;10.226;2023-07-24T19:17:24;6.87;;;3.73;;
23800;SDS011;12081;48.614;10.226;2023-07-24T19:20:08;4.73;;;2.73;;
23800;SDS011;12081;48.614;10.226;2023-07-24T19:22:53;4.90;;;3.00;;
23800;SDS011;12081;48.614;10.226;2023-07-24T19:25:37;3.10;;;2.80;;
23800;SDS011;12081;48.614;10.226;2023-07-24T19:28:21;4.27;;;3.17;;
23800;SDS011;12081;48.614;10.226;2023-07-24T19:31:05;3.20;;;2.90;;
23800;SDS011;12081;48.614;10.226;2023-07-24T19:33:50;4.47;;;3.00;;
23800;SDS011;12081;48.614;10.226;2023-07-24T19:36:34;3.10;;;2.60;;
23800;SDS011;12081;48.614;10.226;2023-07-24T19:39:18;3.60;;;3.10;;
23800;SDS011;12081;48.614;10.226;2023-07-24T19:42:02;3.90;;;2.60;;
23800;SDS011;12081;48.614;10.226;2023-07-24T19:44:47;4.17;;;3.17;;
23800;SDS011;12081;48.614;10.226;2023-07-24T19:47:32;4.57;;;2.97;;
23800;SDS011;12081;48.614;10.226;2023-07-24T19:50:16;5.97;;;3.23;;
23800;SDS011;12081;48.614;10.226;2023-07-24T19:53:00;4.17;;;3.07;;
23800;SDS011;12081;48.614;10.226;2023-07-24T19:55:45;6.37;;;3.27;;
23800;SDS011;12081;48.614;10.226;2023-07-24T19:58:31;5.57;;;3.43;;
23800;SDS011;12081;48.614;10.226;2023-07-24T20:01:19;7.43;;;3.13;;
23800;SDS011;12081;48.614;10.226;2023-07-24T20:04:03;5.60;;;3.27;;
23800;SDS011;12081;48.614;10.226;2023-07-24T20:06:47;6.73;;;3.60;;
23800;SDS011;12081;48.614;10.226;2023-07-24T20:09:32;6.00;;;3.00;;
23800;SDS011;12081;48.614;10.226;2023-07-24T20:12:17;5.00;;;3.30;;
23800;SDS011;12081;48.614;10.226;2023-07-24T20:15:01;4.03;;;2.80;;
23800;SDS011;12081;48.614;10.226;2023-07-24T20:17:47;5.33;;;3.47;;
23800;SDS011;12081;48.614;10.226;2023-07-24T20:20:31;5.93;;;3.87;;
23800;SDS011;12081;48.614;10.226;2023-07-24T20:23:15;4.43;;;3.40;;
23800;SDS011;12081;48.614;10.226;2023-07-24T20:26:02;5.40;;;3.23;;
23800;SDS011;12081;48.614;10.226;2023-07-24T20:28:46;4.53;;;3.30;;
23800;SDS011;12081;48.614;10.226;2023-07-24T20:31:31;4.37;;;3.53;;
23800;SDS011;12081;48.614;10.226;2023-07-24T20:34:15;4.67;;;3.80;;
23800;SDS011;12081;48.614;10.226;2023-07-24T20:36:59;5.83;;;3.77;;
23800;SDS011;12081;48.614;10.226;2023-07-24T20:39:43;4.93;;;4.10;;
23800;SDS011;12081;48.614;10.226;2023-07-24T20:42:28;6.90;;;3.90;;
23800;SDS011;12081;48.614;10.226;2023-07-24T20:45:13;5.50;;;3.90;;
23800;SDS011;12081;48.614;10.226;2023-07-24T20:47:57;7.43;;;4.20;;
23800;SDS011;12081;48.614;10.226;2023-07-24T20:50:41;4.37;;;3.70;;
23800;SDS011;12081;48.614;10.226;2023-07-24T20:53:26;5.53;;;3.50;;
23800;SDS011;12081;48.614;10.226;2023-07-24T20:56:15;6.80;;;4.13;;
23800;SDS011;12081;48.614;10.226;2023-07-24T20:59:01;6.53;;;4.17;;
23800;SDS011;12081;48.614;10.226;2023-07-24T21:01:45;6.73;;;3.90;;
23800;SDS011;12081;48.614;10.226;2023-07-24T21:04:29;8.50;;;4.10;;
23800;SDS011;12081;48.614;10.226;2023-07-24T21:07:13;8.27;;;4.40;;
23800;SDS011;12081;48.614;10.226;2023-07-24T21:09:58;8.20;;;4.30;;
23800;SDS011;12081;48.614;10.226;2023-07-24T21:12:42;8.53;;;4.07;;
23800;SDS011;12081;48.614;10.226;2023-07-24T21:15:26;5.43;;;3.97;;
23800;SDS011;12081;48.614;10.226;2023-07-24T21:18:10;4.73;;;3.37;;
23800;SDS011;12081;48.614;10.226;2023-07-24T21:20:54;6.80;;;3.80;;
23800;SDS011;12081;48.614;10.226;2023-07-24T21:23:38;7.97;;;3.90;;
23800;SDS011;12081;48.614;10.226;2023-07-24T21:26:22;7.00;;;4.23;;
23800;SDS011;12081;48.614;10.226;2023-07-24T21:29:06;4.63;;;3.47;;
23800;SDS011;12081;48.614;10.226;2023-07-24T21:31:50;5.23;;;3.50;;
23800;SDS011;12081;48.614;10.226;2023-07-24T21:34:37;4.17;;;3.50;;
23800;SDS011;12081;48.614;10.226;2023-07-24T21:37:22;5.67;;;3.47;;
23800;SDS011;12081;48.614;10.226;2023-07-24T21:40:07;6.40;;;3.77;;
23800;SDS011;12081;48.614;10.226;2023-07-24T21:42:52;5.67;;;3.80;;
23800;SDS011;12081;48.614;10.226;2023-07-24T22:39:43;14.13;;;5.20;;
23800;SDS011;12081;48.614;10.226;2023-07-24T22:46:10;8.43;;;4.47;;
23800;SDS011;12081;48.614;10.226;2023-07-24T22:48:54;9.90;;;5.40;;
23800;SDS011;12081;48.614;10.226;2023-07-24T23:17:48;10.07;;;6.83;;
